Darco, Texas
Current Conditions -  °F | °C
As of 12:35 PM on Thursday 30 Oct 2014 (Local Time) from KASL Reporting Station
Clear Clear  
Wind Chill: 73°   Ceiling: Unl
Heat Index: 73°   Visibility: 10mi
Dew Point: 47°   Wind: 5mph
Humidity: 40%   Direction: 160°SSE
Pressure: 30.19"   Gusts: NA
Location:  32.4675°N, 94.3321°W
Report Text: KASL 301735Z AUTO 16004KT 10SM CLR 23/08 A3019 RMK AO1 T02260083
Loading
Personal Weather Stations






























Interactive Weather Map
Tropical Storm Tracking
New forecast layout! Learn more

10-Day Weather Forecast

Advertisements
Track Severe Weather on mobile